Time;durP1;ratioP1;P1;durP2;ratioP2;P2;SDS_P1;SDS_P2;PMS_P1;PMS_P2;Temp;Humidity;BMP_temperature;BMP_pressure;BME280_temperature;BME280_humidity;BME280_pressure;Samples;Min_cycle;Max_cycle;Signal;HPM_P1;HPM_P2
2022/01/25 00:10:15;;;;;;;28.73;19.87;;;;;;;;;;4995835;28;20193;-71
2022/01/25 00:26:58;;;;;;;25.40;18.43;;;;;;;;;;4992918;28;20545;-72
2022/01/25 00:29:35;;;;;;;29.33;20.20;;;;;;;;;;5012945;28;20200;-73
2022/01/25 00:32:04;;;;;;;30.53;20.30;;;;;;;;;;5014037;28;20710;-73
2022/01/25 00:34:33;;;;;;;28.57;20.00;;;;;;;;;;5014920;28;20558;-75
2022/01/25 00:37:03;;;;;;;28.70;20.43;;;;;;;;;;5014322;28;20251;-74
2022/01/25 00:39:31;;;;;;;29.53;20.03;;;;;;;;;;5013861;28;20196;-73
2022/01/25 00:42:00;;;;;;;28.30;20.07;;;;;;;;;;5014187;28;20549;-74
2022/01/25 00:44:34;;;;;;;28.80;19.77;;;;;;;;;;5014676;28;20210;-73
2022/01/25 00:47:05;;;;;;;31.27;21.17;;;;;;;;;;5014366;28;20223;-72
2022/01/25 00:49:36;;;;;;;27.13;19.37;;;;;;;;;;4998989;28;20201;-72
2022/01/25 00:52:19;;;;;;;28.93;19.97;;;;;;;;;;5005133;28;20200;-75
2022/01/25 00:54:48;;;;;;;27.50;20.70;;;;;;;;;;5014456;28;20266;-72
2022/01/25 00:57:17;;;;;;;29.20;20.33;;;;;;;;;;5003108;28;20284;-72
2022/01/25 00:59:47;;;;;;;26.90;19.27;;;;;;;;;;5014368;28;20200;-74
2022/01/25 01:02:17;;;;;;;30.33;19.73;;;;;;;;;;5014494;28;20208;-74
2022/01/25 01:04:50;;;;;;;27.47;20.07;;;;;;;;;;5014331;28;20282;-72
2022/01/25 01:07:20;;;;;;;30.30;19.67;;;;;;;;;;5013224;28;20271;-74
2022/01/25 01:09:51;;;;;;;29.57;20.53;;;;;;;;;;5013988;28;20276;-74
2022/01/25 01:12:36;;;;;;;31.33;21.57;;;;;;;;;;5014279;28;20208;-73
2022/01/25 01:15:13;;;;;;;33.40;22.87;;;;;;;;;;5022622;28;20630;-73
2022/01/25 01:29:10;;;;;;;32.93;23.27;;;;;;;;;;5013718;28;20695;-73
2022/01/25 01:31:54;;;;;;;35.77;23.60;;;;;;;;;;5013825;28;20204;-75
2022/01/25 01:37:29;;;;;;;35.67;24.00;;;;;;;;;;4990755;28;20228;-72
2022/01/25 01:40:22;;;;;;;38.13;24.40;;;;;;;;;;4995486;28;20252;-72
2022/01/25 01:45:48;;;;;;;36.37;24.67;;;;;;;;;;4984644;28;20611;-72
2022/01/25 01:48:27;;;;;;;38.67;25.63;;;;;;;;;;4994494;28;20225;-75
2022/01/25 01:50:58;;;;;;;40.10;26.87;;;;;;;;;;4993781;28;20255;-72
2022/01/25 01:53:27;;;;;;;41.37;26.80;;;;;;;;;;4994160;28;20196;-72
2022/01/25 01:55:57;;;;;;;40.57;26.87;;;;;;;;;;5008994;28;20223;-73
2022/01/25 01:58:25;;;;;;;40.97;26.87;;;;;;;;;;4993999;28;20573;-75
2022/01/25 02:00:54;;;;;;;42.80;27.73;;;;;;;;;;4994246;28;20598;-73
2022/01/25 02:03:23;;;;;;;44.23;28.67;;;;;;;;;;5007451;28;20212;-73
2022/01/25 02:05:51;;;;;;;43.10;28.10;;;;;;;;;;5012770;28;20219;-74
2022/01/25 02:08:20;;;;;;;43.30;28.87;;;;;;;;;;4997485;28;20225;-72
2022/01/25 02:10:48;;;;;;;42.03;28.77;;;;;;;;;;5002898;28;20601;-74
2022/01/25 02:13:18;;;;;;;42.47;28.67;;;;;;;;;;5013132;28;20794;-73
2022/01/25 02:15:48;;;;;;;42.83;29.10;;;;;;;;;;5013563;28;20216;-73
2022/01/25 02:23:51;;;;;;;46.13;31.73;;;;;;;;;;5012603;28;20216;-74
2022/01/25 02:26:20;;;;;;;45.30;31.13;;;;;;;;;;5012266;28;20247;-73
2022/01/25 02:28:48;;;;;;;47.80;31.40;;;;;;;;;;5013622;28;20228;-73
2022/01/25 02:31:17;;;;;;;46.53;31.03;;;;;;;;;;5013191;28;20209;-73
2022/01/25 02:33:46;;;;;;;49.20;31.87;;;;;;;;;;5012816;28;20205;-75
2022/01/25 02:36:17;;;;;;;52.23;32.27;;;;;;;;;;5015314;28;20235;-72
2022/01/25 02:38:45;;;;;;;48.07;32.33;;;;;;;;;;5011965;28;20224;-71
2022/01/25 02:41:14;;;;;;;45.47;31.00;;;;;;;;;;5015844;28;20263;-74
2022/01/25 02:43:46;;;;;;;48.67;32.23;;;;;;;;;;5011597;28;20259;-74
2022/01/25 02:48:29;;;;;;;46.20;30.43;;;;;;;;;;5016859;28;20232;-73
2022/01/25 02:49:10;;;;;;;47.03;30.90;;;;;;;;;;5016745;28;20212;-73
2022/01/25 02:51:40;;;;;;;48.00;32.07;;;;;;;;;;5016497;28;20200;-73
2022/01/25 02:54:09;;;;;;;47.50;31.63;;;;;;;;;;5000756;28;20648;-72
2022/01/25 02:56:39;;;;;;;48.90;33.33;;;;;;;;;;5008001;28;20270;-72
2022/01/25 02:59:10;;;;;;;47.53;32.60;;;;;;;;;;5016321;28;20204;-74
2022/01/25 03:01:38;;;;;;;49.27;33.70;;;;;;;;;;5016441;28;20189;-71
2022/01/25 03:04:08;;;;;;;50.00;32.43;;;;;;;;;;5011388;28;20207;-73
2022/01/25 03:06:36;;;;;;;49.53;33.17;;;;;;;;;;5007136;28;20200;-75
2022/01/25 03:09:07;;;;;;;51.23;34.47;;;;;;;;;;5016466;28;20231;-71
2022/01/25 03:11:35;;;;;;;51.37;34.53;;;;;;;;;;5016320;28;20212;-73
2022/01/25 03:14:08;;;;;;;49.77;33.23;;;;;;;;;;5012452;28;20208;-74
2022/01/25 03:16:41;;;;;;;52.87;33.67;;;;;;;;;;5015925;28;20216;-73
2022/01/25 03:21:53;;;;;;;50.33;32.73;;;;;;;;;;5015754;28;20273;-74
2022/01/25 03:24:23;;;;;;;49.30;32.90;;;;;;;;;;5015276;28;20205;-72
2022/01/25 03:26:51;;;;;;;50.57;33.70;;;;;;;;;;5015279;28;20200;-74
2022/01/25 03:29:20;;;;;;;50.87;33.10;;;;;;;;;;5015952;28;20208;-72
2022/01/25 03:31:48;;;;;;;51.73;34.37;;;;;;;;;;5016081;28;20208;-74
2022/01/25 03:34:17;;;;;;;51.93;33.83;;;;;;;;;;5015957;28;20609;-75
2022/01/25 03:36:45;;;;;;;52.53;33.27;;;;;;;;;;5015211;28;20243;-73
2022/01/25 03:39:14;;;;;;;52.23;34.83;;;;;;;;;;5015611;28;20203;-72
2022/01/25 03:41:43;;;;;;;56.47;33.80;;;;;;;;;;5015643;28;20668;-73
2022/01/25 03:44:12;;;;;;;50.07;34.17;;;;;;;;;;5015137;28;20212;-72
2022/01/25 03:46:55;;;;;;;52.17;34.67;;;;;;;;;;5015610;28;20546;-74
2022/01/25 03:52:12;;;;;;;52.20;33.57;;;;;;;;;;5015221;28;20203;-74
2022/01/25 03:54:40;;;;;;;49.97;32.70;;;;;;;;;;5015025;28;20231;-72
2022/01/25 03:57:10;;;;;;;48.90;32.73;;;;;;;;;;5014625;28;20293;-72
2022/01/25 03:59:38;;;;;;;49.33;32.57;;;;;;;;;;5015324;28;20254;-74
2022/01/25 04:02:07;;;;;;;49.50;32.83;;;;;;;;;;5015121;28;20205;-71
2022/01/25 04:04:36;;;;;;;49.87;32.93;;;;;;;;;;5014802;28;20204;-72
2022/01/25 04:07:09;;;;;;;51.57;33.33;;;;;;;;;;5015013;28;20270;-73
2022/01/25 04:09:38;;;;;;;49.67;33.27;;;;;;;;;;5006805;28;20204;-72
2022/01/25 04:12:08;;;;;;;50.20;32.33;;;;;;;;;;5002818;28;20204;-73
2022/01/25 04:14:38;;;;;;;50.30;32.80;;;;;;;;;;5012854;28;20680;-74
2022/01/25 04:17:09;;;;;;;48.93;32.13;;;;;;;;;;5014274;28;20223;-73
2022/01/25 04:19:42;;;;;;;48.03;32.13;;;;;;;;;;5015296;28;20264;-75
2022/01/25 04:25:13;;;;;;;49.57;31.20;;;;;;;;;;5012041;28;20234;-72
2022/01/25 04:27:42;;;;;;;49.57;31.07;;;;;;;;;;5011073;28;20220;-72
2022/01/25 04:30:12;;;;;;;45.93;30.80;;;;;;;;;;5014529;28;20207;-73
2022/01/25 04:32:48;;;;;;;49.60;30.77;;;;;;;;;;5014885;28;20199;-74
2022/01/25 04:35:43;;;;;;;46.47;29.63;;;;;;;;;;5007598;28;20199;-74
2022/01/25 04:49:22;;;;;;;45.93;28.43;;;;;;;;;;5014621;28;20215;-74
2022/01/25 04:51:59;;;;;;;44.90;28.37;;;;;;;;;;5014194;28;20204;-72
2022/01/25 04:54:38;;;;;;;45.53;28.37;;;;;;;;;;5013356;28;20205;-71
2022/01/25 04:57:20;;;;;;;41.17;27.47;;;;;;;;;;5013036;28;20224;-74
2022/01/25 04:59:54;;;;;;;48.27;28.80;;;;;;;;;;5014116;28;20266;-73
2022/01/25 05:02:34;;;;;;;43.27;27.93;;;;;;;;;;5007999;28;20207;-74
2022/01/25 05:05:09;;;;;;;47.87;30.37;;;;;;;;;;5012564;28;20207;-72
2022/01/25 05:07:44;;;;;;;43.87;28.33;;;;;;;;;;5009188;28;20249;-74
2022/01/25 05:10:14;;;;;;;47.20;29.10;;;;;;;;;;5014030;28;20616;-72
2022/01/25 05:12:46;;;;;;;47.27;29.10;;;;;;;;;;5012367;28;20205;-74
2022/01/25 05:16:00;;;;;;;44.23;28.73;;;;;;;;;;5001457;28;20241;-74
2022/01/25 05:18:40;;;;;;;50.10;29.43;;;;;;;;;;5013773;28;20274;-73
2022/01/25 05:23:55;;;;;;;49.20;31.00;;;;;;;;;;5001866;28;20227;-73
2022/01/25 05:26:24;;;;;;;45.37;28.93;;;;;;;;;;5013624;28;20197;-71
2022/01/25 05:28:58;;;;;;;48.83;29.83;;;;;;;;;;5013479;28;20220;-71
2022/01/25 05:31:26;;;;;;;47.43;29.13;;;;;;;;;;5005347;28;20237;-73
2022/01/25 05:33:56;;;;;;;45.83;28.83;;;;;;;;;;5013211;28;20214;-72
2022/01/25 05:36:25;;;;;;;40.97;25.70;;;;;;;;;;5012221;28;20223;-71
2022/01/25 05:38:57;;;;;;;40.13;24.40;;;;;;;;;;5013656;28;20225;-71
2022/01/25 05:41:29;;;;;;;35.63;21.80;;;;;;;;;;5010592;28;20612;-74
2022/01/25 05:44:22;;;;;;;38.30;23.80;;;;;;;;;;5013032;28;20253;-73
2022/01/25 05:47:04;;;;;;;41.27;25.63;;;;;;;;;;5013560;28;20207;-74
2022/01/25 05:49:35;;;;;;;43.53;26.07;;;;;;;;;;5013835;28;20254;-75
2022/01/25 05:52:05;;;;;;;40.37;25.40;;;;;;;;;;5009787;28;20793;-73
2022/01/25 05:54:34;;;;;;;44.70;26.30;;;;;;;;;;5013156;28;20250;-72
2022/01/25 05:57:03;;;;;;;40.83;24.27;;;;;;;;;;5011232;28;20236;-74
2022/01/25 05:59:31;;;;;;;43.97;26.93;;;;;;;;;;5012026;28;20199;-71
2022/01/25 06:01:59;;;;;;;43.63;27.33;;;;;;;;;;5010307;28;20683;-73
2022/01/25 06:04:28;;;;;;;43.60;26.50;;;;;;;;;;5013346;28;20235;-73
2022/01/25 06:06:58;;;;;;;43.53;27.50;;;;;;;;;;5012373;28;20212;-73
2022/01/25 06:09:26;;;;;;;44.37;27.27;;;;;;;;;;5004289;28;20226;-74
2022/01/25 06:11:56;;;;;;;45.70;27.83;;;;;;;;;;5016216;28;20201;-74
2022/01/25 06:14:24;;;;;;;44.93;27.83;;;;;;;;;;5016750;28;20208;-72
2022/01/25 06:17:04;;;;;;;45.97;28.40;;;;;;;;;;5016608;28;20210;-72
2022/01/25 06:19:35;;;;;;;45.80;28.43;;;;;;;;;;5008106;28;20207;-74
2022/01/25 06:22:05;;;;;;;44.63;27.63;;;;;;;;;;5015226;28;20207;-72
2022/01/25 06:24:34;;;;;;;46.30;28.03;;;;;;;;;;5015575;28;20609;-72
2022/01/25 06:27:03;;;;;;;45.73;28.30;;;;;;;;;;5017143;28;20228;-72
2022/01/25 06:29:34;;;;;;;47.23;27.73;;;;;;;;;;5032694;28;20193;-72
2022/01/25 06:32:03;;;;;;;46.27;28.07;;;;;;;;;;5009626;28;20660;-75
2022/01/25 06:34:32;;;;;;;43.87;26.97;;;;;;;;;;5012810;28;20196;-75
2022/01/25 06:37:01;;;;;;;42.27;25.47;;;;;;;;;;5015477;28;20216;-74
2022/01/25 06:39:33;;;;;;;44.57;27.20;;;;;;;;;;5016373;28;20220;-71
2022/01/25 06:42:01;;;;;;;45.23;26.73;;;;;;;;;;5016834;28;20219;-72
2022/01/25 06:44:33;;;;;;;40.00;24.37;;;;;;;;;;5016088;28;20212;-73
2022/01/25 06:47:02;;;;;;;49.10;28.07;;;;;;;;;;5016415;28;20200;-74
2022/01/25 06:49:30;;;;;;;42.80;25.97;;;;;;;;;;5016368;28;20259;-75
2022/01/25 06:52:10;;;;;;;38.47;23.27;;;;;;;;;;5016876;28;20195;-71
2022/01/25 06:54:40;;;;;;;39.67;23.63;;;;;;;;;;5016832;28;20236;-74
2022/01/25 06:57:09;;;;;;;40.50;24.17;;;;;;;;;;5016730;28;20227;-75
2022/01/25 06:59:38;;;;;;;40.53;24.30;;;;;;;;;;5016115;28;20248;-75
2022/01/25 07:02:07;;;;;;;44.70;28.03;;;;;;;;;;5016333;28;20216;-73
2022/01/25 07:04:36;;;;;;;34.50;22.97;;;;;;;;;;5016403;28;20240;-71
2022/01/25 07:07:04;;;;;;;43.57;25.27;;;;;;;;;;5016274;28;20224;-73
2022/01/25 07:09:34;;;;;;;40.30;24.33;;;;;;;;;;5015917;28;20607;-72
2022/01/25 07:12:05;;;;;;;40.40;24.50;;;;;;;;;;5016099;28;20211;-72
2022/01/25 07:14:34;;;;;;;45.80;27.17;;;;;;;;;;5015990;28;20212;-75
2022/01/25 07:17:02;;;;;;;41.53;25.53;;;;;;;;;;5016066;28;20258;-71
2022/01/25 07:19:31;;;;;;;44.10;26.17;;;;;;;;;;5015240;28;20314;-72
2022/01/25 07:21:59;;;;;;;48.40;28.63;;;;;;;;;;5015874;28;20203;-73
2022/01/25 07:24:28;;;;;;;44.40;26.23;;;;;;;;;;5015978;28;20208;-73
2022/01/25 07:26:56;;;;;;;42.90;24.77;;;;;;;;;;5015880;28;20217;-74
2022/01/25 07:29:28;;;;;;;40.50;23.03;;;;;;;;;;5016399;28;20238;-73
2022/01/25 07:31:56;;;;;;;41.57;26.43;;;;;;;;;;5016060;28;20195;-74
2022/01/25 07:34:30;;;;;;;43.53;26.37;;;;;;;;;;5016093;28;20192;-72
2022/01/25 07:37:00;;;;;;;43.33;25.87;;;;;;;;;;5015525;28;20741;-71
2022/01/25 07:39:36;;;;;;;42.13;25.23;;;;;;;;;;5015787;28;20216;-74
2022/01/25 07:42:04;;;;;;;49.83;28.87;;;;;;;;;;5015912;28;20208;-73
2022/01/25 07:44:38;;;;;;;40.47;23.63;;;;;;;;;;5015468;28;20298;-75
2022/01/25 07:47:07;;;;;;;37.40;23.23;;;;;;;;;;5015814;28;20220;-74
2022/01/25 07:49:38;;;;;;;40.67;23.07;;;;;;;;;;5015349;28;20218;-75
2022/01/25 07:52:10;;;;;;;46.40;26.87;;;;;;;;;;4995775;28;20726;-73
2022/01/25 07:54:39;;;;;;;39.63;23.53;;;;;;;;;;5005303;28;20201;-72
2022/01/25 07:57:07;;;;;;;41.03;23.63;;;;;;;;;;5015484;28;20230;-74
2022/01/25 07:59:38;;;;;;;44.87;26.23;;;;;;;;;;5013860;28;20238;-72
2022/01/25 08:02:06;;;;;;;43.90;26.57;;;;;;;;;;5010282;28;20216;-72
2022/01/25 08:04:54;;;;;;;49.73;29.03;;;;;;;;;;5009704;28;20201;-72
2022/01/25 08:07:37;;;;;;;50.17;27.77;;;;;;;;;;4953940;28;20235;-75
2022/01/25 08:10:25;;;;;;;48.60;28.27;;;;;;;;;;5007010;28;20197;-73
2022/01/25 08:13:10;;;;;;;43.77;23.83;;;;;;;;;;5011706;28;20605;-76
2022/01/25 08:15:57;;;;;;;45.90;26.73;;;;;;;;;;5001224;28;20208;-75
2022/01/25 08:18:31;;;;;;;48.80;26.63;;;;;;;;;;5014875;28;20259;-73
2022/01/25 08:21:05;;;;;;;45.43;25.77;;;;;;;;;;5014931;28;20200;-75
2022/01/25 08:23:47;;;;;;;44.93;25.63;;;;;;;;;;5002037;28;20219;-75
2022/01/25 08:26:45;;;;;;;47.63;25.50;;;;;;;;;;4954018;29;20232;-73
2022/01/25 08:29:36;;;;;;;47.00;27.23;;;;;;;;;;4878192;29;20661;-74
2022/01/25 08:32:20;;;;;;;49.17;26.90;;;;;;;;;;4875868;29;20211;-74
2022/01/25 08:35:02;;;;;;;44.37;24.97;;;;;;;;;;4876589;29;20212;-73
2022/01/25 08:37:48;;;;;;;48.00;27.20;;;;;;;;;;4878458;29;20228;-76
2022/01/25 08:40:30;;;;;;;47.13;25.43;;;;;;;;;;4878455;29;20708;-73
2022/01/25 08:43:12;;;;;;;46.10;26.23;;;;;;;;;;4876376;29;20223;-75
2022/01/25 08:45:52;;;;;;;50.00;27.07;;;;;;;;;;4878471;29;20633;-75
2022/01/25 08:48:29;;;;;;;50.30;27.67;;;;;;;;;;4878205;29;20350;-74
2022/01/25 08:51:01;;;;;;;50.57;27.63;;;;;;;;;;4859800;29;20303;-73
2022/01/25 08:53:48;;;;;;;46.27;26.60;;;;;;;;;;4885254;29;20223;-71
2022/01/25 08:56:33;;;;;;;41.77;23.33;;;;;;;;;;4893600;29;20287;-72
2022/01/25 08:59:34;;;;;;;45.17;24.30;;;;;;;;;;4841165;29;20231;-75
2022/01/25 09:02:02;;;;;;;41.33;23.73;;;;;;;;;;4917899;29;20210;-72
2022/01/25 09:04:33;;;;;;;42.40;24.30;;;;;;;;;;4951470;28;20197;-76
2022/01/25 09:07:01;;;;;;;40.37;23.43;;;;;;;;;;4972752;28;20542;-76
2022/01/25 09:09:30;;;;;;;39.43;22.43;;;;;;;;;;4972947;28;20285;-72
2022/01/25 09:11:58;;;;;;;48.53;26.77;;;;;;;;;;4953497;29;20654;-73
2022/01/25 09:14:27;;;;;;;46.30;24.20;;;;;;;;;;4972068;28;20213;-73
2022/01/25 09:16:55;;;;;;;51.90;28.23;;;;;;;;;;5013261;28;20205;-75
2022/01/25 09:19:24;;;;;;;50.23;27.87;;;;;;;;;;5013699;28;20220;-75
2022/01/25 09:21:54;;;;;;;48.10;27.57;;;;;;;;;;5013824;28;20660;-73
2022/01/25 09:24:22;;;;;;;48.80;27.47;;;;;;;;;;5013587;28;20196;-72
2022/01/25 09:26:50;;;;;;;45.97;26.67;;;;;;;;;;5013843;28;20204;-73
2022/01/25 09:29:19;;;;;;;48.07;27.40;;;;;;;;;;5013751;28;20201;-74
2022/01/25 09:31:47;;;;;;;49.87;28.33;;;;;;;;;;5013852;28;20212;-73
2022/01/25 09:34:16;;;;;;;47.37;25.00;;;;;;;;;;5013217;28;20200;-74
2022/01/25 09:36:44;;;;;;;48.30;27.37;;;;;;;;;;5013518;28;20218;-75
2022/01/25 09:39:21;;;;;;;43.43;25.43;;;;;;;;;;5013512;28;20225;-75
2022/01/25 09:41:49;;;;;;;49.10;28.77;;;;;;;;;;5013575;28;20199;-74
2022/01/25 09:44:18;;;;;;;45.63;24.63;;;;;;;;;;5013339;28;20562;-74
2022/01/25 09:46:46;;;;;;;44.73;23.97;;;;;;;;;;5013741;28;20207;-73
2022/01/25 09:49:16;;;;;;;50.27;26.97;;;;;;;;;;5013411;28;20211;-72
2022/01/25 09:51:45;;;;;;;50.40;27.90;;;;;;;;;;5013407;28;20207;-75
2022/01/25 09:54:14;;;;;;;38.97;23.23;;;;;;;;;;5013427;28;20668;-72
2022/01/25 09:56:44;;;;;;;48.50;26.13;;;;;;;;;;5013192;28;20203;-74
2022/01/25 09:59:12;;;;;;;50.93;27.60;;;;;;;;;;5013637;28;20271;-73
2022/01/25 10:01:45;;;;;;;41.63;24.03;;;;;;;;;;5013638;28;20318;-73
2022/01/25 10:04:29;;;;;;;38.80;22.07;;;;;;;;;;5013201;28;20196;-75
2022/01/25 10:07:04;;;;;;;52.53;27.90;;;;;;;;;;5013046;28;20200;-75
2022/01/25 10:09:34;;;;;;;46.87;26.37;;;;;;;;;;5013516;28;20185;-76
2022/01/25 10:12:17;;;;;;;41.03;23.13;;;;;;;;;;5013706;28;20231;-74
2022/01/25 10:14:55;;;;;;;50.17;27.43;;;;;;;;;;5002843;28;20252;-73
2022/01/25 10:17:31;;;;;;;41.23;23.20;;;;;;;;;;5013418;28;20558;-75
2022/01/25 10:19:59;;;;;;;40.77;23.73;;;;;;;;;;5013308;28;20224;-74
2022/01/25 10:22:28;;;;;;;44.20;25.67;;;;;;;;;;5013149;28;20729;-74
2022/01/25 10:24:56;;;;;;;49.93;30.00;;;;;;;;;;5026645;28;20197;-73
2022/01/25 10:30:12;;;;;;;48.60;27.40;;;;;;;;;;5012778;28;20201;-75
2022/01/25 10:32:41;;;;;;;52.00;28.63;;;;;;;;;;5013448;28;20256;-72
2022/01/25 10:35:15;;;;;;;42.57;24.17;;;;;;;;;;5012658;28;20546;-74
2022/01/25 10:37:44;;;;;;;44.50;26.27;;;;;;;;;;5012858;28;20777;-75
2022/01/25 10:40:12;;;;;;;48.17;24.93;;;;;;;;;;5012924;28;20224;-74
2022/01/25 10:42:41;;;;;;;47.13;25.40;;;;;;;;;;5013085;28;20663;-75
2022/01/25 10:45:16;;;;;;;47.87;26.60;;;;;;;;;;5012891;28;20252;-73
2022/01/25 10:47:46;;;;;;;45.83;24.77;;;;;;;;;;5013118;28;20220;-74
2022/01/25 10:50:15;;;;;;;47.73;24.33;;;;;;;;;;5013124;28;20196;-74
2022/01/25 10:52:43;;;;;;;45.83;27.07;;;;;;;;;;5012971;28;20212;-76
2022/01/25 10:55:12;;;;;;;50.07;23.73;;;;;;;;;;5016308;28;20200;-72
2022/01/25 10:57:41;;;;;;;50.27;26.50;;;;;;;;;;5016597;28;20228;-77
2022/01/25 11:00:31;;;;;;;40.83;22.43;;;;;;;;;;5016210;28;20243;-76
2022/01/25 11:02:59;;;;;;;40.37;22.13;;;;;;;;;;5016551;28;20270;-76
2022/01/25 11:05:31;;;;;;;47.80;25.83;;;;;;;;;;5016119;28;20693;-75
2022/01/25 11:08:10;;;;;;;51.70;28.10;;;;;;;;;;5016614;28;20228;-72
2022/01/25 11:10:42;;;;;;;50.07;27.20;;;;;;;;;;5016453;28;20259;-74
2022/01/25 11:13:23;;;;;;;44.20;24.13;;;;;;;;;;5012850;28;20212;-73
2022/01/25 11:15:53;;;;;;;39.20;22.27;;;;;;;;;;5009777;28;20270;-74
2022/01/25 11:18:21;;;;;;;47.53;26.40;;;;;;;;;;5016213;28;20760;-74
2022/01/25 11:20:51;;;;;;;48.47;26.00;;;;;;;;;;5016208;28;20228;-74
2022/01/25 11:23:20;;;;;;;41.47;22.37;;;;;;;;;;5015663;28;20664;-74
2022/01/25 11:25:49;;;;;;;47.60;25.57;;;;;;;;;;5016093;28;20213;-77
2022/01/25 11:28:17;;;;;;;51.17;28.23;;;;;;;;;;5015828;28;20224;-76
2022/01/25 11:30:47;;;;;;;44.63;25.10;;;;;;;;;;5016007;28;20200;-73
2022/01/25 11:33:20;;;;;;;47.20;27.10;;;;;;;;;;5009391;28;20255;-73
2022/01/25 11:35:49;;;;;;;48.87;27.90;;;;;;;;;;5016127;28;20195;-78
2022/01/25 11:38:27;;;;;;;41.17;23.43;;;;;;;;;;5015544;28;20224;-76
2022/01/25 11:40:56;;;;;;;43.07;25.03;;;;;;;;;;5015205;28;20282;-73
2022/01/25 11:43:25;;;;;;;41.13;23.50;;;;;;;;;;5015728;28;20608;-73
2022/01/25 11:46:02;;;;;;;48.10;27.47;;;;;;;;;;5015813;28;20203;-74
2022/01/25 11:48:37;;;;;;;44.43;24.30;;;;;;;;;;5015809;28;20294;-76
2022/01/25 11:51:08;;;;;;;44.80;26.00;;;;;;;;;;5015528;28;20200;-74
2022/01/25 11:53:38;;;;;;;49.10;27.40;;;;;;;;;;5015413;28;20659;-74
2022/01/25 11:56:09;;;;;;;42.73;24.33;;;;;;;;;;5015487;28;20254;-74
2022/01/25 11:58:38;;;;;;;42.33;24.13;;;;;;;;;;5015611;28;20220;-73
2022/01/25 12:01:09;;;;;;;44.43;24.80;;;;;;;;;;5015553;28;20228;-74
2022/01/25 12:03:44;;;;;;;38.13;21.60;;;;;;;;;;5000994;28;20211;-73
2022/01/25 12:06:17;;;;;;;41.30;23.83;;;;;;;;;;5015670;28;20578;-74
2022/01/25 12:09:06;;;;;;;41.70;24.83;;;;;;;;;;5015254;28;20224;-76
2022/01/25 12:11:37;;;;;;;39.93;22.40;;;;;;;;;;5015048;28;20199;-74
2022/01/25 12:14:30;;;;;;;46.60;26.33;;;;;;;;;;5015158;28;20299;-75
2022/01/25 12:17:10;;;;;;;36.73;21.50;;;;;;;;;;5014946;28;20204;-77
2022/01/25 12:19:44;;;;;;;45.93;26.07;;;;;;;;;;5015060;28;20229;-74
2022/01/25 12:22:17;;;;;;;39.47;21.97;;;;;;;;;;5014978;28;20209;-76
2022/01/25 12:24:52;;;;;;;51.33;26.03;;;;;;;;;;5014992;28;20189;-76
2022/01/25 12:27:25;;;;;;;40.67;24.13;;;;;;;;;;4995434;28;20236;-74
2022/01/25 12:30:01;;;;;;;48.93;27.00;;;;;;;;;;4996199;28;20205;-74
2022/01/25 12:32:32;;;;;;;46.00;25.83;;;;;;;;;;5015438;28;20204;-76
2022/01/25 12:35:10;;;;;;;43.90;23.23;;;;;;;;;;5014373;28;20192;-78
2022/01/25 12:37:57;;;;;;;47.37;26.53;;;;;;;;;;5014516;28;20232;-73
2022/01/25 12:40:34;;;;;;;45.43;25.73;;;;;;;;;;5014805;28;20204;-74
2022/01/25 12:43:03;;;;;;;44.00;25.73;;;;;;;;;;5014515;28;20562;-76
2022/01/25 12:45:33;;;;;;;43.87;24.00;;;;;;;;;;5014763;28;20246;-77
2022/01/25 12:48:02;;;;;;;38.67;23.03;;;;;;;;;;5014477;28;20323;-75
2022/01/25 12:50:32;;;;;;;42.17;23.40;;;;;;;;;;5014254;28;20207;-73
2022/01/25 12:53:01;;;;;;;41.77;23.20;;;;;;;;;;5014183;28;20239;-77
2022/01/25 12:55:32;;;;;;;44.33;24.20;;;;;;;;;;5014071;28;20618;-74
2022/01/25 12:58:00;;;;;;;47.83;26.17;;;;;;;;;;5013945;28;20220;-72
2022/01/25 13:00:30;;;;;;;42.80;24.53;;;;;;;;;;5014428;28;20208;-75
2022/01/25 13:03:17;;;;;;;47.60;26.50;;;;;;;;;;5005617;28;20701;-75
2022/01/25 13:05:48;;;;;;;49.27;26.53;;;;;;;;;;5014607;28;20212;-76
2022/01/25 13:08:19;;;;;;;48.60;26.73;;;;;;;;;;5014442;28;20224;-74
2022/01/25 13:10:48;;;;;;;46.07;25.43;;;;;;;;;;5011136;28;20208;-75
2022/01/25 13:13:24;;;;;;;45.10;25.23;;;;;;;;;;5014415;28;20567;-74
2022/01/25 13:15:56;;;;;;;45.57;25.17;;;;;;;;;;5012977;28;20196;-75
2022/01/25 13:18:27;;;;;;;44.57;22.93;;;;;;;;;;5014540;28;20672;-76
2022/01/25 13:21:01;;;;;;;51.70;28.03;;;;;;;;;;5013685;28;20255;-75
2022/01/25 13:23:30;;;;;;;48.60;24.73;;;;;;;;;;5013529;28;20204;-76
2022/01/25 13:26:08;;;;;;;50.10;27.40;;;;;;;;;;4997933;28;20196;-74
2022/01/25 13:28:51;;;;;;;47.80;26.67;;;;;;;;;;5019568;28;20223;-76
2022/01/25 13:31:20;;;;;;;47.13;24.30;;;;;;;;;;5011689;28;20192;-77
2022/01/25 13:33:50;;;;;;;50.73;27.00;;;;;;;;;;5012780;28;20573;-77
2022/01/25 13:36:21;;;;;;;53.40;28.60;;;;;;;;;;5013159;28;20208;-74
2022/01/25 13:38:50;;;;;;;48.50;25.10;;;;;;;;;;5012921;28;20313;-75
2022/01/25 13:41:26;;;;;;;45.30;24.53;;;;;;;;;;5013005;28;20220;-74
2022/01/25 13:46:43;;;;;;;46.97;24.10;;;;;;;;;;5007431;28;20561;-77
2022/01/25 13:49:14;;;;;;;52.03;26.70;;;;;;;;;;5013102;28;20250;-75
2022/01/25 13:51:45;;;;;;;55.53;27.47;;;;;;;;;;5013378;28;20205;-76
2022/01/25 13:54:21;;;;;;;46.80;24.97;;;;;;;;;;5010701;28;20597;-75
2022/01/25 13:56:50;;;;;;;46.13;24.87;;;;;;;;;;5012822;28;20197;-74
2022/01/25 13:59:21;;;;;;;49.80;26.63;;;;;;;;;;5013581;28;20196;-74
2022/01/25 14:01:50;;;;;;;43.47;24.07;;;;;;;;;;5013347;28;20223;-74
2022/01/25 14:04:19;;;;;;;52.30;26.80;;;;;;;;;;5013313;28;20287;-73
2022/01/25 14:06:53;;;;;;;50.07;26.33;;;;;;;;;;5013210;28;20255;-76
2022/01/25 14:09:27;;;;;;;43.97;24.03;;;;;;;;;;5013367;28;20718;-73
2022/01/25 14:23:21;;;;;;;44.33;25.07;;;;;;;;;;5013320;28;20212;-72
2022/01/25 14:25:51;;;;;;;51.80;26.40;;;;;;;;;;5013189;28;20215;-76
2022/01/25 14:28:23;;;;;;;43.10;23.20;;;;;;;;;;5021686;28;20250;-72
2022/01/25 14:30:52;;;;;;;48.90;26.73;;;;;;;;;;5026642;28;20197;-72
2022/01/25 14:33:22;;;;;;;47.00;23.07;;;;;;;;;;5013358;28;20254;-73
2022/01/25 14:35:51;;;;;;;49.27;25.90;;;;;;;;;;5016367;28;20251;-73
2022/01/25 14:38:22;;;;;;;49.67;25.73;;;;;;;;;;5016049;28;20223;-76
2022/01/25 14:40:58;;;;;;;48.97;25.50;;;;;;;;;;5016649;28;20239;-74
2022/01/25 14:43:27;;;;;;;45.43;23.70;;;;;;;;;;5012622;28;20227;-74
2022/01/25 14:46:09;;;;;;;50.80;26.20;;;;;;;;;;5015580;28;20549;-74
2022/01/25 14:48:41;;;;;;;43.67;22.93;;;;;;;;;;5013749;28;20220;-72
2022/01/25 14:51:11;;;;;;;52.20;26.53;;;;;;;;;;5015678;28;20710;-73
2022/01/25 14:53:42;;;;;;;50.33;27.43;;;;;;;;;;5013874;28;20672;-73
2022/01/25 14:56:13;;;;;;;45.67;23.73;;;;;;;;;;5015476;28;20671;-74
2022/01/25 15:01:32;;;;;;;49.10;25.50;;;;;;;;;;5013986;28;20572;-75
2022/01/25 15:04:02;;;;;;;44.73;23.97;;;;;;;;;;5010845;28;21972;-77
2022/01/25 15:06:31;;;;;;;55.00;28.53;;;;;;;;;;5015352;28;20234;-77
2022/01/25 15:09:01;;;;;;;50.73;25.83;;;;;;;;;;5012461;28;20307;-77
2022/01/25 15:11:31;;;;;;;43.67;22.13;;;;;;;;;;5013197;28;20208;-77
2022/01/25 15:14:07;;;;;;;46.60;24.03;;;;;;;;;;5015312;28;20204;-77
2022/01/25 15:16:37;;;;;;;55.50;27.00;;;;;;;;;;5014924;28;20211;-76
2022/01/25 15:19:06;;;;;;;45.67;25.40;;;;;;;;;;5013240;28;20228;-77
2022/01/25 15:21:39;;;;;;;49.97;25.20;;;;;;;;;;5014132;28;20579;-77
2022/01/25 15:24:09;;;;;;;49.90;26.30;;;;;;;;;;5014268;28;20605;-77
2022/01/25 15:26:37;;;;;;;57.10;27.77;;;;;;;;;;5014615;28;20559;-77
2022/01/25 15:29:07;;;;;;;51.00;25.93;;;;;;;;;;5015351;28;20761;-77
2022/01/25 15:31:36;;;;;;;45.20;22.77;;;;;;;;;;5013657;28;20595;-77
2022/01/25 15:34:05;;;;;;;42.10;21.67;;;;;;;;;;5008089;28;20201;-77
2022/01/25 15:36:39;;;;;;;56.30;28.03;;;;;;;;;;5012614;28;20660;-77
2022/01/25 15:39:12;;;;;;;50.07;25.70;;;;;;;;;;5017040;28;20227;-77
2022/01/25 15:41:43;;;;;;;52.70;27.10;;;;;;;;;;5033611;28;20203;-77
2022/01/25 15:44:11;;;;;;;49.93;27.13;;;;;;;;;;5015097;28;20230;-77
2022/01/25 15:46:59;;;;;;;47.03;23.83;;;;;;;;;;5013715;28;20203;-76
2022/01/25 15:49:28;;;;;;;49.73;22.77;;;;;;;;;;5012135;28;20274;-77
2022/01/25 15:51:57;;;;;;;52.57;27.43;;;;;;;;;;5013984;28;20305;-77
2022/01/25 15:54:27;;;;;;;49.83;24.83;;;;;;;;;;5014713;28;20201;-76
2022/01/25 15:56:56;;;;;;;46.30;23.47;;;;;;;;;;5009575;28;20204;-77
2022/01/25 15:59:25;;;;;;;63.60;32.20;;;;;;;;;;5013850;28;20212;-77
2022/01/25 16:01:54;;;;;;;58.40;30.27;;;;;;;;;;5008421;28;20285;-77
2022/01/25 16:04:24;;;;;;;53.40;28.20;;;;;;;;;;5014647;28;20231;-77
2022/01/25 16:06:54;;;;;;;49.53;25.53;;;;;;;;;;5008822;28;20210;-77
2022/01/25 16:09:23;;;;;;;41.23;22.67;;;;;;;;;;5008887;28;20660;-77
2022/01/25 16:12:02;;;;;;;53.70;26.73;;;;;;;;;;5010755;28;20200;-77
2022/01/25 16:14:32;;;;;;;50.10;25.73;;;;;;;;;;5014380;28;20196;-77